Time;durP1;ratioP1;P1;durP2;ratioP2;P2;SDS_P1;SDS_P2;PMS_P1;PMS_P2;Temp;Humidity;BMP_temperature;BMP_pressure;BME280_temperature;BME280_humidity;BME280_pressure;Samples;Min_cycle;Max_cycle;Signal;HPM_P1;HPM_P2
2022/06/08 00:01:49;;;;;;;;;;;21.60;67.60;;;;;;5097302;28;19915;-70
2022/06/08 00:04:16;;;;;;;;;;;21.50;67.60;;;;;;5095715;28;19983;-69
2022/06/08 00:06:42;;;;;;;;;;;21.50;68.00;;;;;;5095716;28;20260;-70
2022/06/08 00:09:08;;;;;;;;;;;21.50;67.90;;;;;;5095439;28;19912;-69
2022/06/08 00:11:34;;;;;;;;;;;21.50;67.90;;;;;;5095768;28;20367;-69
2022/06/08 00:13:59;;;;;;;;;;;21.50;68.10;;;;;;5095622;28;19988;-69
2022/06/08 00:16:25;;;;;;;;;;;21.40;67.90;;;;;;5095600;28;19915;-70
2022/06/08 00:18:51;;;;;;;;;;;21.40;68.00;;;;;;5095330;28;20008;-70
2022/06/08 00:21:17;;;;;;;;;;;21.40;68.10;;;;;;5095494;28;19908;-70
2022/06/08 00:23:43;;;;;;;;;;;21.40;68.00;;;;;;5095376;28;19912;-70
2022/06/08 00:26:09;;;;;;;;;;;21.40;67.90;;;;;;5095270;28;19912;-69
2022/06/08 00:28:34;;;;;;;;;;;21.30;68.00;;;;;;5095159;28;19914;-70
2022/06/08 00:31:01;;;;;;;;;;;21.30;68.00;;;;;;5095291;28;19997;-69
2022/06/08 00:33:26;;;;;;;;;;;21.20;67.80;;;;;;5095396;28;19975;-70
2022/06/08 00:35:52;;;;;;;;;;;21.20;67.90;;;;;;5095265;28;19969;-69
2022/06/08 00:38:17;;;;;;;;;;;21.20;67.80;;;;;;5095318;28;19951;-69
2022/06/08 00:40:43;;;;;;;;;;;21.10;67.90;;;;;;5094625;28;19912;-69
2022/06/08 00:43:08;;;;;;;;;;;21.10;67.80;;;;;;5095124;28;19908;-69
2022/06/08 00:45:34;;;;;;;;;;;21.10;67.90;;;;;;5094962;28;19912;-70
2022/06/08 00:48:01;;;;;;;;;;;21.10;67.80;;;;;;5095139;28;20394;-68
2022/06/08 00:50:39;;;;;;;;;;;21.00;67.90;;;;;;5096028;28;19915;-71
2022/06/08 00:53:05;;;;;;;;;;;21.00;68.00;;;;;;5094840;28;19908;-71
2022/06/08 00:55:32;;;;;;;;;;;21.10;68.20;;;;;;5094809;28;19947;-69
2022/06/08 00:58:18;;;;;;;;;;;21.00;68.00;;;;;;5096196;28;19908;-67
2022/06/08 01:00:44;;;;;;;;;;;21.00;68.40;;;;;;5094271;28;19908;-67
2022/06/08 01:03:11;;;;;;;;;;;21.00;68.30;;;;;;5094411;28;19953;-67
2022/06/08 01:05:44;;;;;;;;;;;20.90;68.50;;;;;;5094536;28;19934;-68
2022/06/08 01:08:21;;;;;;;;;;;20.90;68.00;;;;;;5094517;28;19908;-69
2022/06/08 01:10:49;;;;;;;;;;;21.00;68.10;;;;;;5094270;28;19908;-69
2022/06/08 01:13:14;;;;;;;;;;;20.90;68.50;;;;;;5094504;28;20368;-66
2022/06/08 01:15:41;;;;;;;;;;;20.90;68.40;;;;;;5094368;28;19915;-67
2022/06/08 01:18:06;;;;;;;;;;;20.90;68.30;;;;;;5094480;28;19970;-67
2022/06/08 01:20:32;;;;;;;;;;;20.90;68.30;;;;;;5094124;28;19904;-65
2022/06/08 01:22:58;;;;;;;;;;;20.80;68.00;;;;;;5094426;28;19960;-68
2022/06/08 01:25:24;;;;;;;;;;;20.80;68.30;;;;;;5094095;28;19918;-66
2022/06/08 01:28:02;;;;;;;;;;;20.80;68.20;;;;;;5095664;28;19908;-66
2022/06/08 01:30:46;;;;;;;;;;;20.80;68.10;;;;;;5093918;28;19916;-67
2022/06/08 01:33:18;;;;;;;;;;;20.80;68.20;;;;;;5094188;28;20336;-68
2022/06/08 01:36:05;;;;;;;;;;;20.70;67.90;;;;;;5094028;28;20000;-68
2022/06/08 01:38:46;;;;;;;;;;;20.70;68.00;;;;;;5093838;28;20352;-67
2022/06/08 01:41:31;;;;;;;;;;;20.70;67.70;;;;;;5095350;28;19951;-66
2022/06/08 01:44:15;;;;;;;;;;;20.70;67.60;;;;;;5094003;28;20041;-68
2022/06/08 01:46:46;;;;;;;;;;;20.70;68.00;;;;;;5094108;28;19945;-65
2022/06/08 01:49:25;;;;;;;;;;;20.60;67.80;;;;;;5093542;28;19908;-65
2022/06/08 01:51:54;;;;;;;;;;;20.60;67.70;;;;;;5093854;28;20368;-67
2022/06/08 01:54:46;;;;;;;;;;;20.60;67.70;;;;;;5093657;28;19912;-66
2022/06/08 01:57:24;;;;;;;;;;;20.60;67.50;;;;;;5062792;28;19950;-66
2022/06/08 02:00:11;;;;;;;;;;;20.50;67.70;;;;;;5093350;28;19915;-67
2022/06/08 02:02:49;;;;;;;;;;;20.50;67.70;;;;;;5093702;28;19914;-67
2022/06/08 02:05:27;;;;;;;;;;;20.50;67.60;;;;;;5093407;28;19965;-66
2022/06/08 02:07:58;;;;;;;;;;;20.50;67.80;;;;;;5093502;28;19912;-66
2022/06/08 02:10:40;;;;;;;;;;;20.40;67.40;;;;;;5093136;28;19908;-68
2022/06/08 02:13:09;;;;;;;;;;;20.50;67.90;;;;;;5093176;28;19912;-68
2022/06/08 02:15:37;;;;;;;;;;;20.40;68.00;;;;;;5093003;28;19911;-69
2022/06/08 02:18:06;;;;;;;;;;;20.40;67.80;;;;;;5093480;28;19912;-71
2022/06/08 02:20:39;;;;;;;;;;;20.40;67.70;;;;;;5092887;28;19908;-71
2022/06/08 02:23:05;;;;;;;;;;;20.30;67.50;;;;;;5093306;28;19912;-71
2022/06/08 02:25:32;;;;;;;;;;;20.30;67.60;;;;;;5092956;28;20441;-71
2022/06/08 02:28:01;;;;;;;;;;;20.30;67.60;;;;;;5094529;28;20257;-70
2022/06/08 02:30:29;;;;;;;;;;;20.30;67.60;;;;;;5092679;28;19931;-71
2022/06/08 02:35:59;;;;;;;;;;;20.30;67.50;;;;;;5094710;28;19958;-69
2022/06/08 02:38:28;;;;;;;;;;;20.30;67.70;;;;;;5092955;28;19961;-68
2022/06/08 02:40:55;;;;;;;;;;;20.30;67.90;;;;;;5092911;28;19919;-67
2022/06/08 02:43:23;;;;;;;;;;;20.30;67.70;;;;;;5093038;28;20392;-66
2022/06/08 02:45:54;;;;;;;;;;;20.20;67.50;;;;;;5092899;28;19972;-66
2022/06/08 02:48:19;;;;;;;;;;;20.20;67.50;;;;;;5093010;28;19908;-68
2022/06/08 02:50:56;;;;;;;;;;;20.10;67.90;;;;;;5092361;28;19908;-68
2022/06/08 02:53:22;;;;;;;;;;;20.10;67.90;;;;;;5092558;28;20000;-67
2022/06/08 02:56:07;;;;;;;;;;;20.10;68.00;;;;;;5092743;28;19909;-68
2022/06/08 02:58:39;;;;;;;;;;;20.10;67.90;;;;;;5092378;28;20411;-66
2022/06/08 03:01:12;;;;;;;;;;;20.10;67.80;;;;;;5092583;28;19908;-68
2022/06/08 03:03:43;;;;;;;;;;;20.20;67.70;;;;;;5092481;28;19912;-68
2022/06/08 03:06:23;;;;;;;;;;;20.10;67.80;;;;;;5092362;28;19919;-66
2022/06/08 03:08:56;;;;;;;;;;;20.00;67.90;;;;;;5092140;28;20356;-66
2022/06/08 03:11:23;;;;;;;;;;;20.00;67.90;;;;;;5092676;28;20085;-67
2022/06/08 03:14:09;;;;;;;;;;;20.00;67.80;;;;;;5092529;28;20414;-68
2022/06/08 03:16:36;;;;;;;;;;;20.00;67.90;;;;;;5091886;28;19908;-67
2022/06/08 03:19:02;;;;;;;;;;;20.00;67.90;;;;;;5092140;28;19954;-67
2022/06/08 03:21:27;;;;;;;;;;;19.90;67.70;;;;;;5093885;28;19954;-69
2022/06/08 03:23:54;;;;;;;;;;;20.00;68.00;;;;;;5092340;28;19908;-68
2022/06/08 03:26:20;;;;;;;;;;;20.00;68.00;;;;;;5092097;28;19919;-69
2022/06/08 03:28:46;;;;;;;;;;;20.30;68.30;;;;;;5092023;28;19912;-68
2022/06/08 03:31:12;;;;;;;;;;;19.50;69.40;;;;;;5092487;28;19962;-69
2022/06/08 03:33:37;;;;;;;;;;;19.30;69.80;;;;;;5092430;28;19909;-70
2022/06/08 03:36:03;;;;;;;;;;;19.40;69.30;;;;;;5092224;28;19943;-66
2022/06/08 03:38:29;;;;;;;;;;;19.60;68.90;;;;;;5091749;28;20279;-66
2022/06/08 03:40:54;;;;;;;;;;;19.70;68.70;;;;;;5092009;28;19912;-68
2022/06/08 03:43:20;;;;;;;;;;;19.70;68.40;;;;;;5092113;28;19916;-68
2022/06/08 03:45:49;;;;;;;;;;;19.80;68.50;;;;;;5092218;28;19912;-68
2022/06/08 03:48:15;;;;;;;;;;;19.80;68.30;;;;;;5092126;28;19908;-70
2022/06/08 03:50:42;;;;;;;;;;;19.80;68.00;;;;;;5091623;28;20485;-68
2022/06/08 03:53:12;;;;;;;;;;;19.80;68.00;;;;;;5091998;28;20364;-67
2022/06/08 03:55:37;;;;;;;;;;;19.80;68.00;;;;;;5091860;28;19976;-67
2022/06/08 03:58:04;;;;;;;;;;;19.80;68.50;;;;;;5091899;28;20318;-69
2022/06/08 04:00:30;;;;;;;;;;;19.80;68.20;;;;;;5091457;28;20410;-71
2022/06/08 04:02:56;;;;;;;;;;;19.80;68.90;;;;;;5091796;28;20375;-68
2022/06/08 04:05:22;;;;;;;;;;;19.80;68.20;;;;;;5091513;28;19912;-70
2022/06/08 04:07:47;;;;;;;;;;;19.80;68.10;;;;;;5091916;28;19908;-68
2022/06/08 04:10:13;;;;;;;;;;;19.80;68.00;;;;;;5091344;28;19908;-68
2022/06/08 04:12:39;;;;;;;;;;;19.90;67.90;;;;;;5091666;28;19908;-68
2022/06/08 04:15:05;;;;;;;;;;;19.90;68.00;;;;;;5091487;28;19930;-68
2022/06/08 04:17:30;;;;;;;;;;;19.90;68.00;;;;;;5092877;28;19915;-68
2022/06/08 04:19:56;;;;;;;;;;;19.90;67.90;;;;;;5091385;28;19908;-70
2022/06/08 04:22:22;;;;;;;;;;;19.90;68.20;;;;;;5091703;28;20399;-67
2022/06/08 04:24:48;;;;;;;;;;;19.90;67.80;;;;;;5091610;28;19912;-69
2022/06/08 04:27:14;;;;;;;;;;;19.90;67.80;;;;;;5091615;28;19988;-69
2022/06/08 04:29:40;;;;;;;;;;;19.90;67.60;;;;;;5091276;28;19908;-68
2022/06/08 04:32:07;;;;;;;;;;;19.90;67.80;;;;;;5091847;28;19931;-68
2022/06/08 04:34:33;;;;;;;;;;;19.90;68.00;;;;;;5091501;28;19904;-68
2022/06/08 04:36:59;;;;;;;;;;;19.90;67.80;;;;;;5092302;28;19915;-70
2022/06/08 04:39:24;;;;;;;;;;;19.90;67.80;;;;;;5094757;28;19908;-71
2022/06/08 04:41:50;;;;;;;;;;;20.00;67.90;;;;;;5095063;28;20360;-68
2022/06/08 04:44:16;;;;;;;;;;;20.00;67.80;;;;;;5095032;28;19931;-69
2022/06/08 04:46:41;;;;;;;;;;;20.00;67.80;;;;;;5095038;28;20353;-69
2022/06/08 04:49:08;;;;;;;;;;;20.00;67.80;;;;;;5094739;28;20280;-69
2022/06/08 04:51:34;;;;;;;;;;;20.00;68.10;;;;;;5094897;28;20357;-69
2022/06/08 04:54:00;;;;;;;;;;;20.10;68.00;;;;;;5094902;28;20267;-68
2022/06/08 04:56:25;;;;;;;;;;;20.10;68.10;;;;;;5094766;28;20011;-68
2022/06/08 04:58:54;;;;;;;;;;;20.10;67.80;;;;;;5094482;28;20007;-68
2022/06/08 05:01:20;;;;;;;;;;;20.10;67.60;;;;;;5094686;28;19912;-68
2022/06/08 05:03:45;;;;;;;;;;;20.20;67.60;;;;;;5094798;28;19916;-69
2022/06/08 05:06:11;;;;;;;;;;;20.20;67.40;;;;;;5094741;28;19912;-67
2022/06/08 05:08:36;;;;;;;;;;;20.20;67.60;;;;;;5094452;28;19908;-66
2022/06/08 05:11:04;;;;;;;;;;;20.30;67.90;;;;;;5094603;28;19908;-67
2022/06/08 05:13:30;;;;;;;;;;;20.20;67.60;;;;;;5094560;28;20003;-68
2022/06/08 05:15:56;;;;;;;;;;;20.20;67.80;;;;;;5094481;28;20368;-69
2022/06/08 05:18:22;;;;;;;;;;;20.20;68.00;;;;;;5094352;28;19915;-68
2022/06/08 05:20:48;;;;;;;;;;;20.20;68.00;;;;;;5094211;28;19912;-68
2022/06/08 05:23:22;;;;;;;;;;;20.20;67.80;;;;;;5094374;28;19947;-68
2022/06/08 05:25:48;;;;;;;;;;;20.10;67.70;;;;;;5094278;28;19960;-70
2022/06/08 05:28:14;;;;;;;;;;;20.10;67.70;;;;;;5094412;28;19951;-67
2022/06/08 05:30:40;;;;;;;;;;;20.20;67.80;;;;;;5093969;28;19947;-66
2022/06/08 05:33:06;;;;;;;;;;;20.10;67.60;;;;;;5094321;28;19912;-68
2022/06/08 05:35:31;;;;;;;;;;;20.10;67.40;;;;;;5093933;28;19918;-67
2022/06/08 05:37:57;;;;;;;;;;;20.10;67.70;;;;;;5094111;28;20448;-69
2022/06/08 05:40:24;;;;;;;;;;;20.10;67.60;;;;;;5093496;28;19912;-67
2022/06/08 05:42:50;;;;;;;;;;;20.10;67.60;;;;;;5094281;28;19923;-67
2022/06/08 05:45:17;;;;;;;;;;;20.10;67.30;;;;;;5094049;28;20271;-70
2022/06/08 05:47:43;;;;;;;;;;;20.10;67.70;;;;;;5095269;28;20261;-69
2022/06/08 05:50:09;;;;;;;;;;;20.10;67.40;;;;;;5092576;28;19962;-67
2022/06/08 05:52:35;;;;;;;;;;;20.10;67.40;;;;;;5093938;28;19909;-69
2022/06/08 05:55:00;;;;;;;;;;;20.10;67.30;;;;;;5093769;28;19912;-68
2022/06/08 05:57:26;;;;;;;;;;;20.10;67.60;;;;;;5093756;28;20392;-68
2022/06/08 05:59:51;;;;;;;;;;;20.10;67.50;;;;;;5093282;28;19919;-70
2022/06/08 06:02:17;;;;;;;;;;;20.10;67.80;;;;;;5095084;28;19995;-68
2022/06/08 06:04:43;;;;;;;;;;;20.10;67.40;;;;;;5093693;28;19973;-71
2022/06/08 06:07:08;;;;;;;;;;;20.10;67.50;;;;;;5093663;28;19912;-72
2022/06/08 06:09:34;;;;;;;;;;;20.10;67.60;;;;;;5093157;28;20003;-67
2022/06/08 06:12:00;;;;;;;;;;;20.10;67.50;;;;;;5093588;28;20387;-69
2022/06/08 06:14:26;;;;;;;;;;;19.90;67.50;;;;;;5093299;28;20006;-70
2022/06/08 06:16:51;;;;;;;;;;;20.10;67.10;;;;;;5093488;28;20330;-68
2022/06/08 06:19:17;;;;;;;;;;;19.80;68.00;;;;;;5093039;28;19984;-68
2022/06/08 06:21:42;;;;;;;;;;;19.60;68.90;;;;;;5093405;28;19908;-68
2022/06/08 06:24:08;;;;;;;;;;;19.50;68.70;;;;;;5093363;28;19924;-71
2022/06/08 06:26:33;;;;;;;;;;;19.40;69.50;;;;;;5093176;28;19951;-69
2022/06/08 06:28:59;;;;;;;;;;;19.30;68.80;;;;;;5092682;28;20331;-72
2022/06/08 06:31:27;;;;;;;;;;;19.30;69.00;;;;;;5092891;28;19962;-68
2022/06/08 06:33:53;;;;;;;;;;;19.20;70.20;;;;;;5094129;28;20249;-70
2022/06/08 06:36:18;;;;;;;;;;;19.10;70.60;;;;;;5092834;28;20445;-71
2022/06/08 06:38:44;;;;;;;;;;;19.10;71.00;;;;;;5092417;28;19940;-68
2022/06/08 06:41:13;;;;;;;;;;;19.10;70.60;;;;;;5092693;28;19947;-68
2022/06/08 06:43:38;;;;;;;;;;;19.00;70.50;;;;;;5092829;28;19908;-71
2022/06/08 06:46:04;;;;;;;;;;;19.00;71.80;;;;;;5092642;28;19918;-71
2022/06/08 06:48:29;;;;;;;;;;;19.00;70.70;;;;;;5092192;28;20348;-70
2022/06/08 06:50:55;;;;;;;;;;;18.90;70.60;;;;;;5090853;28;19913;-71
2022/06/08 06:53:20;;;;;;;;;;;19.00;70.30;;;;;;5090554;28;19916;-78
2022/06/08 06:55:46;;;;;;;;;;;19.20;70.70;;;;;;5090784;28;19915;-70
2022/06/08 06:58:12;;;;;;;;;;;19.40;71.10;;;;;;5090668;28;19978;-70
2022/06/08 07:00:37;;;;;;;;;;;19.40;69.60;;;;;;5083493;28;19915;-68
2022/06/08 07:03:04;;;;;;;;;;;19.40;69.10;;;;;;5091746;28;19934;-67
2022/06/08 07:05:31;;;;;;;;;;;19.50;69.00;;;;;;5092531;28;19977;-69
2022/06/08 07:07:57;;;;;;;;;;;19.70;69.40;;;;;;5090200;28;19912;-71
2022/06/08 07:10:23;;;;;;;;;;;19.90;69.20;;;;;;5090944;28;20393;-68
2022/06/08 07:12:49;;;;;;;;;;;20.20;69.00;;;;;;5091192;28;20394;-69
2022/06/08 07:15:15;;;;;;;;;;;20.40;68.50;;;;;;5092719;28;20368;-71
2022/06/08 07:17:41;;;;;;;;;;;20.60;67.60;;;;;;5090890;28;19916;-69
2022/06/08 07:20:07;;;;;;;;;;;20.80;67.20;;;;;;5091965;28;19915;-70
2022/06/08 07:22:32;;;;;;;;;;;21.00;66.70;;;;;;5092283;28;19919;-69
2022/06/08 07:24:58;;;;;;;;;;;21.20;67.10;;;;;;5082550;28;20372;-69
2022/06/08 07:27:23;;;;;;;;;;;21.40;68.40;;;;;;5090893;28;19919;-69
2022/06/08 07:29:50;;;;;;;;;;;21.60;68.80;;;;;;5090677;28;19954;-68
2022/06/08 07:32:15;;;;;;;;;;;21.80;68.50;;;;;;5090976;28;19908;-66
2022/06/08 07:34:41;;;;;;;;;;;22.20;69.00;;;;;;5090831;28;19981;-67
2022/06/08 07:37:07;;;;;;;;;;;22.20;68.80;;;;;;5091120;28;20399;-66
2022/06/08 07:39:32;;;;;;;;;;;22.40;68.60;;;;;;5091425;28;20314;-70
2022/06/08 07:41:58;;;;;;;;;;;22.70;67.60;;;;;;5092060;28;19923;-66
2022/06/08 07:44:24;;;;;;;;;;;23.90;73.40;;;;;;5091914;28;20354;-68
2022/06/08 07:46:49;;;;;;;;;;;24.90;66.00;;;;;;5092006;28;19912;-65
2022/06/08 07:52:00;;;;;;;;;;;25.80;56.50;;;;;;5093681;28;20374;-70
2022/06/08 07:54:27;;;;;;;;;;;25.80;56.10;;;;;;5091887;28;20014;-66
2022/06/08 07:56:53;;;;;;;;;;;25.90;55.70;;;;;;5091907;28;19912;-66
2022/06/08 07:59:23;;;;;;;;;;;25.80;56.00;;;;;;5091542;28;19958;-67
2022/06/08 08:01:49;;;;;;;;;;;25.80;55.50;;;;;;5091863;28;19915;-66
2022/06/08 08:04:14;;;;;;;;;;;25.80;55.30;;;;;;5092063;28;19912;-67
2022/06/08 08:06:40;;;;;;;;;;;25.80;55.50;;;;;;5091790;28;19912;-68
2022/06/08 08:09:09;;;;;;;;;;;25.80;55.30;;;;;;5091521;28;19920;-68
2022/06/08 08:11:35;;;;;;;;;;;25.80;55.20;;;;;;5091862;28;19919;-69
2022/06/08 08:14:00;;;;;;;;;;;25.70;55.60;;;;;;5095683;28;20010;-69
2022/06/08 08:16:26;;;;;;;;;;;25.70;55.00;;;;;;5095610;28;20607;-68
2022/06/08 08:18:52;;;;;;;;;;;25.60;56.10;;;;;;5095239;28;19995;-69
2022/06/08 08:21:17;;;;;;;;;;;25.40;56.10;;;;;;5095505;28;19908;-69
2022/06/08 08:23:43;;;;;;;;;;;25.40;56.00;;;;;;5095453;28;19908;-69
2022/06/08 08:26:08;;;;;;;;;;;25.80;55.30;;;;;;5095328;28;20253;-68
2022/06/08 08:28:34;;;;;;;;;;;26.20;54.10;;;;;;5095038;28;19914;-69
2022/06/08 08:30:59;;;;;;;;;;;26.40;52.20;;;;;;5095461;28;19908;-69
2022/06/08 08:33:25;;;;;;;;;;;26.70;51.70;;;;;;5095134;28;19908;-68
2022/06/08 08:35:52;;;;;;;;;;;26.60;51.70;;;;;;5095153;28;19915;-68
2022/06/08 08:38:19;;;;;;;;;;;26.30;52.10;;;;;;5095245;28;19915;-69
2022/06/08 08:40:46;;;;;;;;;;;26.20;52.20;;;;;;5094616;28;20367;-67
2022/06/08 08:43:14;;;;;;;;;;;26.10;52.70;;;;;;5095056;28;20284;-67
2022/06/08 08:45:58;;;;;;;;;;;25.70;53.50;;;;;;5095001;28;20014;-68
2022/06/08 08:48:29;;;;;;;;;;;25.50;54.30;;;;;;5095112;28;19912;-68
2022/06/08 08:51:01;;;;;;;;;;;25.20;54.70;;;;;;5095161;28;19931;-68
2022/06/08 08:53:30;;;;;;;;;;;25.10;55.10;;;;;;5096449;28;19908;-68
2022/06/08 08:56:03;;;;;;;;;;;25.10;55.10;;;;;;5094926;28;20023;-68
2022/06/08 08:58:30;;;;;;;;;;;25.30;54.50;;;;;;5094763;28;19908;-68
2022/06/08 09:00:58;;;;;;;;;;;25.50;54.60;;;;;;5094893;28;19969;-69
2022/06/08 09:03:24;;;;;;;;;;;;;;;;;;5094856;28;20263;-67
2022/06/08 09:05:51;;;;;;;;;;;25.80;84.00;;;;;;5094565;28;19912;-66
2022/06/08 09:08:19;;;;;;;;;;;26.10;70.80;;;;;;5094755;28;19995;-67
2022/06/08 09:10:44;;;;;;;;;;;26.20;67.20;;;;;;5094258;28;20351;-68
2022/06/08 09:13:12;;;;;;;;;;;26.20;64.60;;;;;;5094576;28;19908;-67
2022/06/08 09:15:56;;;;;;;;;;;26.20;64.50;;;;;;5094403;28;19908;-68
2022/06/08 09:18:34;;;;;;;;;;;26.20;65.60;;;;;;5094463;28;19927;-68
2022/06/08 09:21:18;;;;;;;;;;;26.20;65.10;;;;;;5094396;28;20050;-67
2022/06/08 09:23:44;;;;;;;;;;;26.30;72.10;;;;;;5094215;28;19908;-67
2022/06/08 09:26:13;;;;;;;;;;;26.30;70.20;;;;;;5094274;28;19965;-68
2022/06/08 09:28:38;;;;;;;;;;;26.40;62.60;;;;;;5093840;28;20324;-66
2022/06/08 09:31:04;;;;;;;;;;;26.40;62.10;;;;;;5093913;28;19958;-68
2022/06/08 09:33:37;;;;;;;;;;;26.50;62.00;;;;;;5094004;28;19959;-69
2022/06/08 09:36:05;;;;;;;;;;;26.50;61.60;;;;;;5093865;28;19969;-67
2022/06/08 09:38:33;;;;;;;;;;;26.40;61.50;;;;;;5093572;28;20356;-67
2022/06/08 09:41:04;;;;;;;;;;;26.40;67.20;;;;;;5093652;28;19919;-66
2022/06/08 09:43:36;;;;;;;;;;;26.30;69.30;;;;;;5093800;28;19909;-67
2022/06/08 09:46:08;;;;;;;;;;;26.20;69.00;;;;;;5093619;28;19923;-66
2022/06/08 09:51:31;;;;;;;;;;;26.10;68.60;;;;;;5094944;28;19953;-68
2022/06/08 09:54:01;;;;;;;;;;;26.10;68.50;;;;;;5093621;28;19916;-68
2022/06/08 09:56:45;;;;;;;;;;;26.00;68.40;;;;;;5093505;28;20363;-68
2022/06/08 09:59:14;;;;;;;;;;;25.90;67.90;;;;;;5093149;28;19912;-67
2022/06/08 10:01:43;;;;;;;;;;;25.90;67.70;;;;;;5093534;28;19908;-68
2022/06/08 10:04:12;;;;;;;;;;;25.90;67.90;;;;;;5093253;28;19912;-68
2022/06/08 10:06:47;;;;;;;;;;;25.80;68.00;;;;;;5093330;28;19965;-68
2022/06/08 10:09:31;;;;;;;;;;;25.70;67.40;;;;;;5092974;28;19908;-68
2022/06/08 10:12:00;;;;;;;;;;;25.70;66.40;;;;;;5093261;28;19912;-68
2022/06/08 10:14:31;;;;;;;;;;;25.60;66.30;;;;;;5093061;28;19912;-68
2022/06/08 10:17:03;;;;;;;;;;;25.60;66.10;;;;;;5093220;28;20026;-67
2022/06/08 10:19:43;;;;;;;;;;;25.40;64.90;;;;;;5094107;28;19969;-69
2022/06/08 10:22:09;;;;;;;;;;;25.40;64.10;;;;;;5093092;28;20051;-68
2022/06/08 10:24:49;;;;;;;;;;;25.30;62.70;;;;;;5092944;28;19900;-68
2022/06/08 10:27:20;;;;;;;;;;;25.20;62.40;;;;;;5092962;28;19912;-67
2022/06/08 10:29:53;;;;;;;;;;;25.10;62.10;;;;;;5092553;28;19908;-69
2022/06/08 10:32:28;;;;;;;;;;;25.10;62.00;;;;;;5092902;28;20007;-66
2022/06/08 10:34:54;;;;;;;;;;;24.90;61.80;;;;;;5092086;28;19908;-67
2022/06/08 10:37:24;;;;;;;;;;;24.80;62.30;;;;;;5092757;28;19915;-66
2022/06/08 10:39:51;;;;;;;;;;;24.80;62.10;;;;;;5092384;28;20024;-67
2022/06/08 10:45:03;;;;;;;;;;;24.70;62.60;;;;;;5093936;28;19915;-67
2022/06/08 10:47:33;;;;;;;;;;;24.70;62.90;;;;;;5092535;28;19957;-68
2022/06/08 10:50:03;;;;;;;;;;;24.60;62.80;;;;;;5092279;28;20387;-68
2022/06/08 10:52:41;;;;;;;;;;;24.50;62.40;;;;;;5092583;28;20001;-69
2022/06/08 10:55:18;;;;;;;;;;;24.60;62.90;;;;;;5092336;28;20268;-67
2022/06/08 10:57:50;;;;;;;;;;;24.50;62.40;;;;;;5092475;28;19909;-68
2022/06/08 11:00:16;;;;;;;;;;;24.40;62.40;;;;;;5092086;28;19908;-68
2022/06/08 11:02:43;;;;;;;;;;;24.40;62.10;;;;;;5093672;28;20057;-66
2022/06/08 11:05:18;;;;;;;;;;;24.40;62.10;;;;;;5092283;28;20312;-67
2022/06/08 11:07:58;;;;;;;;;;;24.40;62.00;;;;;;5092486;28;20368;-67
2022/06/08 11:10:50;;;;;;;;;;;24.40;61.80;;;;;;5092273;28;19916;-67
2022/06/08 11:13:26;;;;;;;;;;;24.50;61.90;;;;;;5092533;28;20412;-67
2022/06/08 11:15:51;;;;;;;;;;;24.50;61.80;;;;;;5092445;28;20356;-67
2022/06/08 11:18:21;;;;;;;;;;;24.50;61.80;;;;;;5093777;28;19908;-68
2022/06/08 11:21:14;;;;;;;;;;;24.40;61.80;;;;;;5092250;28;19912;-68
2022/06/08 11:23:42;;;;;;;;;;;24.50;61.80;;;;;;5092392;28;19975;-66
2022/06/08 11:26:14;;;;;;;;;;;24.50;61.70;;;;;;5092098;28;19912;-68
2022/06/08 11:28:50;;;;;;;;;;;24.50;61.70;;;;;;5091959;28;19908;-68
2022/06/08 11:31:25;;;;;;;;;;;24.50;61.50;;;;;;5092343;28;19919;-68
2022/06/08 11:33:51;;;;;;;;;;;24.50;61.60;;;;;;5092349;28;19915;-68
2022/06/08 11:36:29;;;;;;;;;;;24.70;61.60;;;;;;5092128;28;19908;-67
2022/06/08 11:39:05;;;;;;;;;;;24.60;61.50;;;;;;5092044;28;19909;-68
2022/06/08 11:41:39;;;;;;;;;;;24.60;62.00;;;;;;5092256;28;19916;-68
2022/06/08 11:44:13;;;;;;;;;;;24.60;61.20;;;;;;5092222;28;19908;-68
2022/06/08 11:46:53;;;;;;;;;;;24.60;61.30;;;;;;5093920;28;19912;-67
2022/06/08 11:49:30;;;;;;;;;;;24.60;61.30;;;;;;5095820;28;20046;-67
2022/06/08 11:51:56;;;;;;;;;;;24.60;61.50;;;;;;5096011;28;19908;-68
2022/06/08 11:54:29;;;;;;;;;;;24.60;61.40;;;;;;5095878;28;19908;-67
2022/06/08 11:57:03;;;;;;;;;;;24.60;61.40;;;;;;5096039;28;19908;-69
2022/06/08 11:59:31;;;;;;;;;;;24.60;62.10;;;;;;5095539;28;19915;-69
2022/06/08 12:02:01;;;;;;;;;;;24.60;61.40;;;;;;5096135;28;20279;-69
2022/06/08 12:04:30;;;;;;;;;;;24.60;61.20;;;;;;5095615;28;20403;-69
2022/06/08 12:06:56;;;;;;;;;;;24.60;61.30;;;;;;5095660;28;20005;-68
2022/06/08 12:09:31;;;;;;;;;;;24.60;61.30;;;;;;5095276;28;19958;-67
2022/06/08 12:12:13;;;;;;;;;;;24.50;61.30;;;;;;5095687;28;19908;-67
2022/06/08 12:14:39;;;;;;;;;;;24.50;61.40;;;;;;5095842;28;19904;-68
2022/06/08 12:17:05;;;;;;;;;;;24.50;61.50;;;;;;5095888;28;19916;-68
2022/06/08 12:19:40;;;;;;;;;;;24.50;61.60;;;;;;5095382;28;19912;-67
2022/06/08 12:22:07;;;;;;;;;;;24.50;61.60;;;;;;5095707;28;19987;-67
2022/06/08 12:24:33;;;;;;;;;;;24.50;61.50;;;;;;5096762;28;19981;-67
2022/06/08 12:27:01;;;;;;;;;;;24.50;61.60;;;;;;5095470;28;20352;-68
2022/06/08 12:29:29;;;;;;;;;;;24.60;61.60;;;;;;5095184;28;19947;-67
2022/06/08 12:31:59;;;;;;;;;;;24.50;61.30;;;;;;5095536;28;19957;-68
2022/06/08 12:34:25;;;;;;;;;;;24.60;61.20;;;;;;5095315;28;19915;-68
2022/06/08 12:36:51;;;;;;;;;;;24.60;61.10;;;;;;5095438;28;19966;-66
2022/06/08 12:39:18;;;;;;;;;;;24.60;61.10;;;;;;5095025;28;19918;-69
2022/06/08 12:41:43;;;;;;;;;;;24.60;61.20;;;;;;5095370;28;19916;-69
2022/06/08 12:44:23;;;;;;;;;;;24.60;61.20;;;;;;5096373;28;19908;-68
2022/06/08 12:46:50;;;;;;;;;;;24.60;61.10;;;;;;5094177;28;20003;-68
2022/06/08 12:49:17;;;;;;;;;;;24.60;61.20;;;;;;5092576;28;20007;-69
2022/06/08 12:51:53;;;;;;;;;;;24.60;61.30;;;;;;5094259;28;20010;-68
2022/06/08 12:54:27;;;;;;;;;;;24.60;61.40;;;;;;5094508;28;19908;-67
2022/06/08 12:56:55;;;;;;;;;;;24.50;61.30;;;;;;5094762;28;19969;-68
2022/06/08 12:59:21;;;;;;;;;;;24.50;61.40;;;;;;5093678;28;19912;-66
2022/06/08 13:01:47;;;;;;;;;;;24.50;61.40;;;;;;5094680;28;20440;-68
2022/06/08 13:04:14;;;;;;;;;;;24.50;61.50;;;;;;5094502;28;19912;-68
2022/06/08 13:06:40;;;;;;;;;;;24.50;61.40;;;;;;5094435;28;20345;-69
2022/06/08 13:09:06;;;;;;;;;;;24.60;61.40;;;;;;5094290;28;19914;-67
2022/06/08 13:11:32;;;;;;;;;;;24.60;61.40;;;;;;5094473;28;19993;-68
2022/06/08 13:13:57;;;;;;;;;;;24.50;61.40;;;;;;5094447;28;19912;-66
2022/06/08 13:16:29;;;;;;;;;;;24.50;61.50;;;;;;5094393;28;19962;-68
2022/06/08 13:18:56;;;;;;;;;;;24.50;61.50;;;;;;5093999;28;19912;-66
2022/06/08 13:21:22;;;;;;;;;;;24.50;61.50;;;;;;5094294;28;19908;-67
2022/06/08 13:23:47;;;;;;;;;;;24.50;61.50;;;;;;5094208;28;19953;-67
2022/06/08 13:26:15;;;;;;;;;;;24.50;61.50;;;;;;5094073;28;19915;-68
2022/06/08 13:28:41;;;;;;;;;;;24.40;61.60;;;;;;5093891;28;19908;-67
2022/06/08 13:31:09;;;;;;;;;;;24.40;61.60;;;;;;5093990;28;19915;-67
2022/06/08 13:36:19;;;;;;;;;;;24.40;61.80;;;;;;5095587;28;19914;-68
2022/06/08 13:38:47;;;;;;;;;;;24.40;61.80;;;;;;5093736;28;20272;-69
2022/06/08 13:41:13;;;;;;;;;;;24.40;61.80;;;;;;5093784;28;19969;-67
2022/06/08 13:43:39;;;;;;;;;;;24.40;61.80;;;;;;5093879;28;19911;-69
2022/06/08 13:46:08;;;;;;;;;;;24.50;61.80;;;;;;5093601;28;19923;-67
2022/06/08 13:48:34;;;;;;;;;;;24.50;61.70;;;;;;5093498;28;19908;-66
2022/06/08 13:51:00;;;;;;;;;;;24.40;61.60;;;;;;5093671;28;19908;-66
2022/06/08 13:53:27;;;;;;;;;;;24.40;61.60;;;;;;5093568;28;19919;-68
2022/06/08 13:55:54;;;;;;;;;;;24.50;61.60;;;;;;5093661;28;20279;-69
2022/06/08 13:58:20;;;;;;;;;;;24.50;62.30;;;;;;5093487;28;19971;-66
2022/06/08 14:00:53;;;;;;;;;;;24.50;61.80;;;;;;5093710;28;19916;-66
2022/06/08 14:03:27;;;;;;;;;;;24.40;61.60;;;;;;5092817;28;19912;-66
2022/06/08 14:14:11;;;;;;;;;;;24.20;61.90;;;;;;5095410;28;19970;-68
2022/06/08 14:16:38;;;;;;;;;;;24.00;61.70;;;;;;5093623;28;20387;-68
2022/06/08 14:19:25;;;;;;;;;;;24.20;70.20;;;;;;5093131;28;20360;-67
2022/06/08 14:21:51;;;;;;;;;;;24.20;69.80;;;;;;5094800;28;20257;-69
2022/06/08 14:24:18;;;;;;;;;;;24.10;69.20;;;;;;5093330;28;19935;-68
2022/06/08 14:26:44;;;;;;;;;;;24.10;68.20;;;;;;5094846;28;19912;-68
2022/06/08 14:29:09;;;;;;;;;;;24.10;68.60;;;;;;5092941;28;19994;-66
2022/06/08 14:31:43;;;;;;;;;;;24.10;67.90;;;;;;5103289;27;20327;-67
2022/06/08 14:34:18;;;;;;;;;;;24.10;67.60;;;;;;5069531;28;19991;-69
2022/06/08 14:36:44;;;;;;;;;;;24.00;67.40;;;;;;5069517;28;19913;-66
2022/06/08 14:39:11;;;;;;;;;;;23.90;66.80;;;;;;5069165;28;19913;-68
2022/06/08 14:41:40;;;;;;;;;;;23.90;65.20;;;;;;5069384;28;19908;-69
2022/06/08 14:44:06;;;;;;;;;;;23.90;65.70;;;;;;5069274;28;19913;-68
2022/06/08 14:46:32;;;;;;;;;;;23.80;64.40;;;;;;5069177;28;19909;-69
2022/06/08 14:48:58;;;;;;;;;;;23.70;64.90;;;;;;5069121;28;20321;-68
2022/06/08 14:51:23;;;;;;;;;;;23.70;64.50;;;;;;5069127;28;19921;-68